sensor_id;sensor_type;location;lat;lon;timestamp;P1;durP1;ratioP1;P2;durP2;ratioP2
72062;SDS011;59929;43.546;-5.702;2022-08-07T00:01:23;0.00;;;0.00;;
72062;SDS011;59929;43.546;-5.702;2022-08-07T00:03:48;0.00;;;0.00;;
72062;SDS011;59929;43.546;-5.702;2022-08-07T00:06:14;0.10;;;0.00;;
72062;SDS011;59929;43.546;-5.702;2022-08-07T00:08:39;0.00;;;0.00;;
72062;SDS011;59929;43.546;-5.702;2022-08-07T00:11:05;0.00;;;0.00;;
72062;SDS011;59929;43.546;-5.702;2022-08-07T00:13:31;0.10;;;0.00;;
72062;SDS011;59929;43.546;-5.702;2022-08-07T00:15:56;0.00;;;0.00;;
72062;SDS011;59929;43.546;-5.702;2022-08-07T00:18:23;0.17;;;0.00;;
72062;SDS011;59929;43.546;-5.702;2022-08-07T00:20:48;0.10;;;0.00;;
72062;SDS011;59929;43.546;-5.702;2022-08-07T00:23:14;0.00;;;0.00;;
72062;SDS011;59929;43.546;-5.702;2022-08-07T00:25:40;0.20;;;0.00;;
72062;SDS011;59929;43.546;-5.702;2022-08-07T00:28:05;0.10;;;0.00;;
72062;SDS011;59929;43.546;-5.702;2022-08-07T00:30:31;0.10;;;0.00;;
72062;SDS011;59929;43.546;-5.702;2022-08-07T00:32:57;0.10;;;0.00;;
72062;SDS011;59929;43.546;-5.702;2022-08-07T00:35:22;0.00;;;0.00;;
72062;SDS011;59929;43.546;-5.702;2022-08-07T00:37:48;0.00;;;0.00;;
72062;SDS011;59929;43.546;-5.702;2022-08-07T00:40:13;0.20;;;0.00;;
72062;SDS011;59929;43.546;-5.702;2022-08-07T00:42:39;0.00;;;0.00;;
72062;SDS011;59929;43.546;-5.702;2022-08-07T00:45:06;0.10;;;0.00;;
72062;SDS011;59929;43.546;-5.702;2022-08-07T00:47:31;0.00;;;0.00;;
72062;SDS011;59929;43.546;-5.702;2022-08-07T00:49:57;0.00;;;0.00;;
72062;SDS011;59929;43.546;-5.702;2022-08-07T00:52:22;0.20;;;0.00;;
72062;SDS011;59929;43.546;-5.702;2022-08-07T00:54:48;0.00;;;0.00;;
72062;SDS011;59929;43.546;-5.702;2022-08-07T00:57:15;0.10;;;0.00;;
72062;SDS011;59929;43.546;-5.702;2022-08-07T00:59:40;0.10;;;0.00;;
72062;SDS011;59929;43.546;-5.702;2022-08-07T01:02:06;0.10;;;0.00;;
72062;SDS011;59929;43.546;-5.702;2022-08-07T01:04:32;0.00;;;0.00;;
72062;SDS011;59929;43.546;-5.702;2022-08-07T01:06:57;0.10;;;0.00;;
72062;SDS011;59929;43.546;-5.702;2022-08-07T01:09:23;0.00;;;0.00;;
72062;SDS011;59929;43.546;-5.702;2022-08-07T01:11:49;0.20;;;0.00;;
72062;SDS011;59929;43.546;-5.702;2022-08-07T01:14:15;0.00;;;0.00;;
72062;SDS011;59929;43.546;-5.702;2022-08-07T01:16:40;0.10;;;0.00;;
72062;SDS011;59929;43.546;-5.702;2022-08-07T01:19:06;0.20;;;0.00;;
72062;SDS011;59929;43.546;-5.702;2022-08-07T01:21:32;0.03;;;0.00;;
72062;SDS011;59929;43.546;-5.702;2022-08-07T01:23:57;0.05;;;0.00;;
72062;SDS011;59929;43.546;-5.702;2022-08-07T01:26:26;0.10;;;0.00;;
72062;SDS011;59929;43.546;-5.702;2022-08-07T01:28:52;0.22;;;0.00;;
72062;SDS011;59929;43.546;-5.702;2022-08-07T01:31:18;0.30;;;0.00;;
72062;SDS011;59929;43.546;-5.702;2022-08-07T01:33:44;0.10;;;0.00;;
72062;SDS011;59929;43.546;-5.702;2022-08-07T01:36:10;0.20;;;0.00;;
72062;SDS011;59929;43.546;-5.702;2022-08-07T01:38:36;0.20;;;0.00;;
72062;SDS011;59929;43.546;-5.702;2022-08-07T01:41:03;0.00;;;0.00;;
72062;SDS011;59929;43.546;-5.702;2022-08-07T01:43:29;0.00;;;0.00;;
72062;SDS011;59929;43.546;-5.702;2022-08-07T01:45:55;0.08;;;0.00;;
72062;SDS011;59929;43.546;-5.702;2022-08-07T01:48:21;0.10;;;0.00;;
72062;SDS011;59929;43.546;-5.702;2022-08-07T01:50:48;0.00;;;0.00;;
72062;SDS011;59929;43.546;-5.702;2022-08-07T01:53:14;0.00;;;0.00;;
72062;SDS011;59929;43.546;-5.702;2022-08-07T01:55:41;0.10;;;0.00;;
72062;SDS011;59929;43.546;-5.702;2022-08-07T01:58:08;0.10;;;0.00;;
72062;SDS011;59929;43.546;-5.702;2022-08-07T02:00:35;0.10;;;0.00;;
72062;SDS011;59929;43.546;-5.702;2022-08-07T02:03:04;0.00;;;0.00;;
72062;SDS011;59929;43.546;-5.702;2022-08-07T02:05:32;0.17;;;0.00;;
72062;SDS011;59929;43.546;-5.702;2022-08-07T02:07:59;0.08;;;0.00;;
72062;SDS011;59929;43.546;-5.702;2022-08-07T02:10:26;0.20;;;0.00;;
72062;SDS011;59929;43.546;-5.702;2022-08-07T02:12:52;0.00;;;0.00;;
72062;SDS011;59929;43.546;-5.702;2022-08-07T02:15:21;0.10;;;0.00;;
72062;SDS011;59929;43.546;-5.702;2022-08-07T02:17:47;0.00;;;0.00;;
72062;SDS011;59929;43.546;-5.702;2022-08-07T02:20:13;0.10;;;0.00;;
72062;SDS011;59929;43.546;-5.702;2022-08-07T02:22:40;0.10;;;0.00;;
72062;SDS011;59929;43.546;-5.702;2022-08-07T02:25:09;0.10;;;0.00;;
72062;SDS011;59929;43.546;-5.702;2022-08-07T02:27:35;0.10;;;0.00;;
72062;SDS011;59929;43.546;-5.702;2022-08-07T02:30:02;0.10;;;0.00;;
72062;SDS011;59929;43.546;-5.702;2022-08-07T02:32:28;0.10;;;0.00;;
72062;SDS011;59929;43.546;-5.702;2022-08-07T02:34:53;0.00;;;0.00;;
72062;SDS011;59929;43.546;-5.702;2022-08-07T02:37:21;0.10;;;0.00;;
72062;SDS011;59929;43.546;-5.702;2022-08-07T02:39:47;0.30;;;0.00;;
72062;SDS011;59929;43.546;-5.702;2022-08-07T02:42:14;0.10;;;0.00;;
72062;SDS011;59929;43.546;-5.702;2022-08-07T02:44:40;0.10;;;0.00;;
72062;SDS011;59929;43.546;-5.702;2022-08-07T02:47:06;0.00;;;0.00;;
72062;SDS011;59929;43.546;-5.702;2022-08-07T02:49:32;0.20;;;0.00;;
72062;SDS011;59929;43.546;-5.702;2022-08-07T02:51:58;0.00;;;0.00;;
72062;SDS011;59929;43.546;-5.702;2022-08-07T02:54:26;0.20;;;0.00;;
72062;SDS011;59929;43.546;-5.702;2022-08-07T02:56:53;0.20;;;0.00;;
72062;SDS011;59929;43.546;-5.702;2022-08-07T02:59:20;0.10;;;0.00;;
72062;SDS011;59929;43.546;-5.702;2022-08-07T03:01:48;0.10;;;0.00;;
72062;SDS011;59929;43.546;-5.702;2022-08-07T03:04:13;0.00;;;0.00;;
72062;SDS011;59929;43.546;-5.702;2022-08-07T03:06:40;0.10;;;0.00;;
72062;SDS011;59929;43.546;-5.702;2022-08-07T03:09:07;0.08;;;0.00;;
72062;SDS011;59929;43.546;-5.702;2022-08-07T03:11:33;0.00;;;0.00;;
72062;SDS011;59929;43.546;-5.702;2022-08-07T03:13:59;0.10;;;0.00;;
72062;SDS011;59929;43.546;-5.702;2022-08-07T03:16:26;0.10;;;0.00;;
72062;SDS011;59929;43.546;-5.702;2022-08-07T03:18:52;0.10;;;0.00;;
72062;SDS011;59929;43.546;-5.702;2022-08-07T03:21:17;0.10;;;0.00;;
72062;SDS011;59929;43.546;-5.702;2022-08-07T03:23:43;0.00;;;0.00;;
72062;SDS011;59929;43.546;-5.702;2022-08-07T03:26:09;0.10;;;0.00;;
72062;SDS011;59929;43.546;-5.702;2022-08-07T03:28:36;0.20;;;0.00;;
72062;SDS011;59929;43.546;-5.702;2022-08-07T03:31:03;0.20;;;0.00;;
72062;SDS011;59929;43.546;-5.702;2022-08-07T03:33:45;0.10;;;0.00;;
72062;SDS011;59929;43.546;-5.702;2022-08-07T03:36:11;0.20;;;0.00;;
72062;SDS011;59929;43.546;-5.702;2022-08-07T03:38:40;0.10;;;0.00;;
72062;SDS011;59929;43.546;-5.702;2022-08-07T03:41:07;0.10;;;0.00;;
72062;SDS011;59929;43.546;-5.702;2022-08-07T03:43:33;0.00;;;0.00;;
72062;SDS011;59929;43.546;-5.702;2022-08-07T03:46:00;0.10;;;0.00;;
72062;SDS011;59929;43.546;-5.702;2022-08-07T03:48:26;0.20;;;0.00;;
72062;SDS011;59929;43.546;-5.702;2022-08-07T03:50:53;0.10;;;0.00;;
72062;SDS011;59929;43.546;-5.702;2022-08-07T03:53:19;0.10;;;0.00;;
72062;SDS011;59929;43.546;-5.702;2022-08-07T03:55:46;0.05;;;0.00;;
72062;SDS011;59929;43.546;-5.702;2022-08-07T03:58:11;0.07;;;0.00;;
72062;SDS011;59929;43.546;-5.702;2022-08-07T04:00:37;0.05;;;0.00;;
72062;SDS011;59929;43.546;-5.702;2022-08-07T04:03:05;0.10;;;0.00;;
72062;SDS011;59929;43.546;-5.702;2022-08-07T04:05:32;0.10;;;0.00;;
72062;SDS011;59929;43.546;-5.702;2022-08-07T04:07:58;0.00;;;0.00;;
72062;SDS011;59929;43.546;-5.702;2022-08-07T04:10:24;0.00;;;0.00;;
72062;SDS011;59929;43.546;-5.702;2022-08-07T04:12:49;0.10;;;0.00;;
72062;SDS011;59929;43.546;-5.702;2022-08-07T04:15:15;0.20;;;0.00;;
72062;SDS011;59929;43.546;-5.702;2022-08-07T04:17:41;0.10;;;0.00;;
72062;SDS011;59929;43.546;-5.702;2022-08-07T04:20:08;0.00;;;0.00;;
72062;SDS011;59929;43.546;-5.702;2022-08-07T04:22:33;0.00;;;0.00;;
72062;SDS011;59929;43.546;-5.702;2022-08-07T04:24:59;0.00;;;0.00;;
72062;SDS011;59929;43.546;-5.702;2022-08-07T04:27:24;0.10;;;0.00;;
72062;SDS011;59929;43.546;-5.702;2022-08-07T04:29:50;0.00;;;0.00;;
72062;SDS011;59929;43.546;-5.702;2022-08-07T04:32:15;0.03;;;0.00;;
72062;SDS011;59929;43.546;-5.702;2022-08-07T04:34:41;0.00;;;0.00;;
72062;SDS011;59929;43.546;-5.702;2022-08-07T04:37:06;0.00;;;0.00;;
72062;SDS011;59929;43.546;-5.702;2022-08-07T04:39:32;0.00;;;0.00;;
72062;SDS011;59929;43.546;-5.702;2022-08-07T04:41:57;0.00;;;0.00;;
72062;SDS011;59929;43.546;-5.702;2022-08-07T04:44:25;0.17;;;0.00;;
72062;SDS011;59929;43.546;-5.702;2022-08-07T04:49:41;0.15;;;0.00;;
72062;SDS011;59929;43.546;-5.702;2022-08-07T04:52:13;0.10;;;0.00;;
72062;SDS011;59929;43.546;-5.702;2022-08-07T04:54:46;0.00;;;0.00;;
72062;SDS011;59929;43.546;-5.702;2022-08-07T04:57:16;0.00;;;0.00;;
72062;SDS011;59929;43.546;-5.702;2022-08-07T04:59:52;0.10;;;0.00;;
72062;SDS011;59929;43.546;-5.702;2022-08-07T05:05:11;0.10;;;0.00;;
72062;SDS011;59929;43.546;-5.702;2022-08-07T05:07:46;0.00;;;0.00;;
72062;SDS011;59929;43.546;-5.702;2022-08-07T05:10:21;0.00;;;0.00;;
72062;SDS011;59929;43.546;-5.702;2022-08-07T05:12:49;0.10;;;0.00;;
72062;SDS011;59929;43.546;-5.702;2022-08-07T05:15:16;0.20;;;0.00;;
72062;SDS011;59929;43.546;-5.702;2022-08-07T05:17:44;0.22;;;0.00;;
72062;SDS011;59929;43.546;-5.702;2022-08-07T05:20:10;0.20;;;0.00;;
72062;SDS011;59929;43.546;-5.702;2022-08-07T05:22:37;0.10;;;0.00;;
72062;SDS011;59929;43.546;-5.702;2022-08-07T05:25:04;0.25;;;0.00;;
72062;SDS011;59929;43.546;-5.702;2022-08-07T05:27:29;0.10;;;0.00;;
72062;SDS011;59929;43.546;-5.702;2022-08-07T05:29:56;0.00;;;0.00;;
72062;SDS011;59929;43.546;-5.702;2022-08-07T05:32:22;0.00;;;0.00;;
72062;SDS011;59929;43.546;-5.702;2022-08-07T05:34:50;0.10;;;0.00;;
72062;SDS011;59929;43.546;-5.702;2022-08-07T05:37:17;0.10;;;0.00;;
72062;SDS011;59929;43.546;-5.702;2022-08-07T05:39:42;0.00;;;0.00;;
72062;SDS011;59929;43.546;-5.702;2022-08-07T05:42:08;0.10;;;0.00;;
72062;SDS011;59929;43.546;-5.702;2022-08-07T05:44:34;0.15;;;0.00;;
72062;SDS011;59929;43.546;-5.702;2022-08-07T05:47:00;0.17;;;0.00;;
72062;SDS011;59929;43.546;-5.702;2022-08-07T05:49:26;0.00;;;0.00;;
72062;SDS011;59929;43.546;-5.702;2022-08-07T05:51:51;0.00;;;0.00;;
72062;SDS011;59929;43.546;-5.702;2022-08-07T05:54:17;0.00;;;0.00;;
72062;SDS011;59929;43.546;-5.702;2022-08-07T05:56:43;0.10;;;0.00;;
72062;SDS011;59929;43.546;-5.702;2022-08-07T05:59:12;0.25;;;0.00;;
72062;SDS011;59929;43.546;-5.702;2022-08-07T06:01:39;0.10;;;0.00;;
72062;SDS011;59929;43.546;-5.702;2022-08-07T06:04:05;0.13;;;0.00;;
72062;SDS011;59929;43.546;-5.702;2022-08-07T06:06:32;0.10;;;0.00;;
72062;SDS011;59929;43.546;-5.702;2022-08-07T06:08:58;0.10;;;0.00;;
72062;SDS011;59929;43.546;-5.702;2022-08-07T06:11:25;0.03;;;0.00;;
72062;SDS011;59929;43.546;-5.702;2022-08-07T06:13:50;0.20;;;0.00;;
72062;SDS011;59929;43.546;-5.702;2022-08-07T06:16:16;0.30;;;0.00;;
72062;SDS011;59929;43.546;-5.702;2022-08-07T06:18:42;0.10;;;0.00;;
72062;SDS011;59929;43.546;-5.702;2022-08-07T06:21:09;0.05;;;0.00;;
72062;SDS011;59929;43.546;-5.702;2022-08-07T06:23:34;0.20;;;0.00;;
72062;SDS011;59929;43.546;-5.702;2022-08-07T06:26:00;0.10;;;0.00;;
72062;SDS011;59929;43.546;-5.702;2022-08-07T06:28:26;0.10;;;0.00;;
72062;SDS011;59929;43.546;-5.702;2022-08-07T06:30:51;0.10;;;0.00;;
72062;SDS011;59929;43.546;-5.702;2022-08-07T06:33:17;0.13;;;0.00;;
72062;SDS011;59929;43.546;-5.702;2022-08-07T06:35:43;0.00;;;0.00;;
72062;SDS011;59929;43.546;-5.702;2022-08-07T06:38:08;0.10;;;0.00;;
72062;SDS011;59929;43.546;-5.702;2022-08-07T06:40:36;0.10;;;0.00;;
72062;SDS011;59929;43.546;-5.702;2022-08-07T06:43:04;0.10;;;0.00;;
72062;SDS011;59929;43.546;-5.702;2022-08-07T06:45:30;0.20;;;0.00;;
72062;SDS011;59929;43.546;-5.702;2022-08-07T06:47:57;0.10;;;0.00;;
72062;SDS011;59929;43.546;-5.702;2022-08-07T06:50:23;0.17;;;0.00;;
72062;SDS011;59929;43.546;-5.702;2022-08-07T06:52:51;0.10;;;0.00;;
72062;SDS011;59929;43.546;-5.702;2022-08-07T06:55:19;0.10;;;0.00;;
72062;SDS011;59929;43.546;-5.702;2022-08-07T06:57:46;0.00;;;0.00;;
72062;SDS011;59929;43.546;-5.702;2022-08-07T07:00:12;0.10;;;0.00;;
72062;SDS011;59929;43.546;-5.702;2022-08-07T07:02:38;0.00;;;0.00;;
72062;SDS011;59929;43.546;-5.702;2022-08-07T07:05:04;0.10;;;0.00;;
72062;SDS011;59929;43.546;-5.702;2022-08-07T07:07:29;0.03;;;0.00;;
72062;SDS011;59929;43.546;-5.702;2022-08-07T07:09:55;0.20;;;0.00;;
72062;SDS011;59929;43.546;-5.702;2022-08-07T07:12:22;0.10;;;0.00;;
72062;SDS011;59929;43.546;-5.702;2022-08-07T07:17:38;0.10;;;0.00;;
72062;SDS011;59929;43.546;-5.702;2022-08-07T07:20:07;0.10;;;0.00;;
72062;SDS011;59929;43.546;-5.702;2022-08-07T07:22:34;0.30;;;0.00;;
72062;SDS011;59929;43.546;-5.702;2022-08-07T07:25:00;0.00;;;0.00;;
72062;SDS011;59929;43.546;-5.702;2022-08-07T07:27:27;0.20;;;0.00;;
72062;SDS011;59929;43.546;-5.702;2022-08-07T07:29:54;0.10;;;0.00;;
72062;SDS011;59929;43.546;-5.702;2022-08-07T07:32:21;0.20;;;0.00;;
72062;SDS011;59929;43.546;-5.702;2022-08-07T07:34:48;0.00;;;0.00;;
72062;SDS011;59929;43.546;-5.702;2022-08-07T07:37:14;0.10;;;0.00;;
72062;SDS011;59929;43.546;-5.702;2022-08-07T07:39:40;0.00;;;0.00;;
72062;SDS011;59929;43.546;-5.702;2022-08-07T07:42:07;0.10;;;0.00;;
72062;SDS011;59929;43.546;-5.702;2022-08-07T07:44:33;0.10;;;0.00;;
72062;SDS011;59929;43.546;-5.702;2022-08-07T07:47:00;0.10;;;0.00;;
72062;SDS011;59929;43.546;-5.702;2022-08-07T07:49:27;0.10;;;0.00;;
72062;SDS011;59929;43.546;-5.702;2022-08-07T07:51:54;0.10;;;0.00;;
72062;SDS011;59929;43.546;-5.702;2022-08-07T07:54:20;0.10;;;0.00;;
72062;SDS011;59929;43.546;-5.702;2022-08-07T07:56:46;0.10;;;0.00;;
72062;SDS011;59929;43.546;-5.702;2022-08-07T07:59:11;0.10;;;0.00;;
72062;SDS011;59929;43.546;-5.702;2022-08-07T08:01:39;0.10;;;0.00;;
72062;SDS011;59929;43.546;-5.702;2022-08-07T08:04:07;0.10;;;0.00;;
72062;SDS011;59929;43.546;-5.702;2022-08-07T08:06:32;0.10;;;0.00;;
72062;SDS011;59929;43.546;-5.702;2022-08-07T08:08:59;0.10;;;0.00;;
72062;SDS011;59929;43.546;-5.702;2022-08-07T08:11:26;0.10;;;0.00;;
72062;SDS011;59929;43.546;-5.702;2022-08-07T08:13:52;0.10;;;0.00;;
72062;SDS011;59929;43.546;-5.702;2022-08-07T08:16:18;0.33;;;0.00;;
72062;SDS011;59929;43.546;-5.702;2022-08-07T08:18:45;0.10;;;0.00;;
72062;SDS011;59929;43.546;-5.702;2022-08-07T08:21:13;0.20;;;0.00;;
72062;SDS011;59929;43.546;-5.702;2022-08-07T08:24:00;0.10;;;0.00;;
72062;SDS011;59929;43.546;-5.702;2022-08-07T08:26:37;0.20;;;0.00;;
72062;SDS011;59929;43.546;-5.702;2022-08-07T08:29:23;0.10;;;0.00;;
72062;SDS011;59929;43.546;-5.702;2022-08-07T08:31:48;0.30;;;0.00;;
72062;SDS011;59929;43.546;-5.702;2022-08-07T08:34:15;0.10;;;0.00;;
72062;SDS011;59929;43.546;-5.702;2022-08-07T08:36:42;0.00;;;0.00;;
72062;SDS011;59929;43.546;-5.702;2022-08-07T08:39:08;0.10;;;0.00;;
72062;SDS011;59929;43.546;-5.702;2022-08-07T08:41:48;0.40;;;0.00;;
72062;SDS011;59929;43.546;-5.702;2022-08-07T08:44:23;0.20;;;0.00;;
72062;SDS011;59929;43.546;-5.702;2022-08-07T08:49:39;0.10;;;0.00;;
72062;SDS011;59929;43.546;-5.702;2022-08-07T08:52:10;0.10;;;0.00;;
72062;SDS011;59929;43.546;-5.702;2022-08-07T08:54:39;0.00;;;0.00;;
72062;SDS011;59929;43.546;-5.702;2022-08-07T08:57:07;0.10;;;0.00;;
72062;SDS011;59929;43.546;-5.702;2022-08-07T08:59:42;0.10;;;0.00;;
72062;SDS011;59929;43.546;-5.702;2022-08-07T09:02:16;0.20;;;0.00;;
72062;SDS011;59929;43.546;-5.702;2022-08-07T09:10:12;0.20;;;0.00;;
72062;SDS011;59929;43.546;-5.702;2022-08-07T09:15:32;0.10;;;0.00;;
72062;SDS011;59929;43.546;-5.702;2022-08-07T09:20:47;0.27;;;0.00;;
72062;SDS011;59929;43.546;-5.702;2022-08-07T09:23:21;0.10;;;0.00;;
72062;SDS011;59929;43.546;-5.702;2022-08-07T09:28:37;0.10;;;0.00;;
72062;SDS011;59929;43.546;-5.702;2022-08-07T09:31:14;0.10;;;0.00;;
72062;SDS011;59929;43.546;-5.702;2022-08-07T09:33:58;0.00;;;0.00;;
72062;SDS011;59929;43.546;-5.702;2022-08-07T09:36:31;0.35;;;0.00;;
72062;SDS011;59929;43.546;-5.702;2022-08-07T09:39:02;0.10;;;0.00;;
72062;SDS011;59929;43.546;-5.702;2022-08-07T09:41:33;0.40;;;0.00;;
72062;SDS011;59929;43.546;-5.702;2022-08-07T09:44:06;0.20;;;0.00;;
72062;SDS011;59929;43.546;-5.702;2022-08-07T09:46:37;0.23;;;0.00;;
72062;SDS011;59929;43.546;-5.702;2022-08-07T09:54:32;0.10;;;0.00;;
72062;SDS011;59929;43.546;-5.702;2022-08-07T10:02:31;0.10;;;0.00;;
72062;SDS011;59929;43.546;-5.702;2022-08-07T10:05:10;0.10;;;0.00;;
72062;SDS011;59929;43.546;-5.702;2022-08-07T10:07:47;0.10;;;0.00;;
72062;SDS011;59929;43.546;-5.702;2022-08-07T10:10:27;0.10;;;0.00;;
72062;SDS011;59929;43.546;-5.702;2022-08-07T10:15:47;0.22;;;0.00;;
72062;SDS011;59929;43.546;-5.702;2022-08-07T10:21:04;0.15;;;0.00;;
72062;SDS011;59929;43.546;-5.702;2022-08-07T10:23:51;0.10;;;0.00;;
72062;SDS011;59929;43.546;-5.702;2022-08-07T10:26:42;0.00;;;0.00;;
72062;SDS011;59929;43.546;-5.702;2022-08-07T10:29:14;0.10;;;0.00;;
72062;SDS011;59929;43.546;-5.702;2022-08-07T10:37:12;0.10;;;0.00;;
72062;SDS011;59929;43.546;-5.702;2022-08-07T10:40:02;0.23;;;0.00;;
72062;SDS011;59929;43.546;-5.702;2022-08-07T10:42:51;0.22;;;0.00;;
72062;SDS011;59929;43.546;-5.702;2022-08-07T10:45:19;0.10;;;0.00;;
72062;SDS011;59929;43.546;-5.702;2022-08-07T10:47:48;0.30;;;0.00;;
72062;SDS011;59929;43.546;-5.702;2022-08-07T10:50:21;0.10;;;0.00;;
72062;SDS011;59929;43.546;-5.702;2022-08-07T10:52:57;0.10;;;0.00;;
72062;SDS011;59929;43.546;-5.702;2022-08-07T10:55:26;0.10;;;0.00;;
72062;SDS011;59929;43.546;-5.702;2022-08-07T10:58:01;0.03;;;0.00;;
72062;SDS011;59929;43.546;-5.702;2022-08-07T11:00:30;0.10;;;0.00;;
72062;SDS011;59929;43.546;-5.702;2022-08-07T11:03:09;0.10;;;0.00;;
72062;SDS011;59929;43.546;-5.702;2022-08-07T11:08:13;0.10;;;0.00;;
72062;SDS011;59929;43.546;-5.702;2022-08-07T11:10:44;0.00;;;0.00;;
72062;SDS011;59929;43.546;-5.702;2022-08-07T11:13:23;0.10;;;0.00;;
72062;SDS011;59929;43.546;-5.702;2022-08-07T11:15:51;0.10;;;0.00;;
72062;SDS011;59929;43.546;-5.702;2022-08-07T11:18:20;0.10;;;0.00;;
72062;SDS011;59929;43.546;-5.702;2022-08-07T11:20:50;0.03;;;0.00;;
72062;SDS011;59929;43.546;-5.702;2022-08-07T11:23:22;0.10;;;0.00;;
72062;SDS011;59929;43.546;-5.702;2022-08-07T11:28:26;0.10;;;0.00;;
72062;SDS011;59929;43.546;-5.702;2022-08-07T11:30:57;0.20;;;0.00;;
72062;SDS011;59929;43.546;-5.702;2022-08-07T11:36:10;0.05;;;0.00;;
72062;SDS011;59929;43.546;-5.702;2022-08-07T11:38:42;0.20;;;0.00;;
72062;SDS011;59929;43.546;-5.702;2022-08-07T11:41:17;0.10;;;0.00;;
72062;SDS011;59929;43.546;-5.702;2022-08-07T11:43:48;0.00;;;0.00;;
72062;SDS011;59929;43.546;-5.702;2022-08-07T11:51:45;0.20;;;0.10;;
72062;SDS011;59929;43.546;-5.702;2022-08-07T11:54:29;0.10;;;0.00;;
72062;SDS011;59929;43.546;-5.702;2022-08-07T11:57:01;0.00;;;0.00;;
72062;SDS011;59929;43.546;-5.702;2022-08-07T11:59:35;0.10;;;0.00;;
72062;SDS011;59929;43.546;-5.702;2022-08-07T12:07:33;0.10;;;0.00;;
72062;SDS011;59929;43.546;-5.702;2022-08-07T12:10:02;0.20;;;0.00;;
72062;SDS011;59929;43.546;-5.702;2022-08-07T12:15:07;0.10;;;0.00;;
72062;SDS011;59929;43.546;-5.702;2022-08-07T12:17:37;0.17;;;0.00;;
72062;SDS011;59929;43.546;-5.702;2022-08-07T12:20:05;0.10;;;0.00;;
72062;SDS011;59929;43.546;-5.702;2022-08-07T12:22:39;0.10;;;0.00;;
72062;SDS011;59929;43.546;-5.702;2022-08-07T12:25:16;0.00;;;0.00;;
72062;SDS011;59929;43.546;-5.702;2022-08-07T12:27:55;0.10;;;0.00;;
72062;SDS011;59929;43.546;-5.702;2022-08-07T12:30:24;0.10;;;0.00;;
72062;SDS011;59929;43.546;-5.702;2022-08-07T12:32:53;0.10;;;0.00;;
72062;SDS011;59929;43.546;-5.702;2022-08-07T12:35:21;0.10;;;0.00;;
72062;SDS011;59929;43.546;-5.702;2022-08-07T12:37:48;0.08;;;0.00;;
72062;SDS011;59929;43.546;-5.702;2022-08-07T12:40:16;0.13;;;0.10;;
72062;SDS011;59929;43.546;-5.702;2022-08-07T12:42:43;0.10;;;0.00;;
72062;SDS011;59929;43.546;-5.702;2022-08-07T12:45:11;0.20;;;0.00;;
72062;SDS011;59929;43.546;-5.702;2022-08-07T12:47:44;0.00;;;0.00;;
72062;SDS011;59929;43.546;-5.702;2022-08-07T12:52:47;0.10;;;0.00;;
72062;SDS011;59929;43.546;-5.702;2022-08-07T12:55:17;0.30;;;0.00;;
72062;SDS011;59929;43.546;-5.702;2022-08-07T12:57:45;0.10;;;0.00;;
72062;SDS011;59929;43.546;-5.702;2022-08-07T13:00:11;0.00;;;0.00;;
72062;SDS011;59929;43.546;-5.702;2022-08-07T13:02:47;0.10;;;0.00;;
72062;SDS011;59929;43.546;-5.702;2022-08-07T13:08:16;0.20;;;0.00;;
72062;SDS011;59929;43.546;-5.702;2022-08-07T13:16:14;0.10;;;0.00;;
72062;SDS011;59929;43.546;-5.702;2022-08-07T13:18:46;0.10;;;0.00;;
72062;SDS011;59929;43.546;-5.702;2022-08-07T13:21:16;0.00;;;0.00;;
72062;SDS011;59929;43.546;-5.702;2022-08-07T13:26:28;0.00;;;0.00;;
72062;SDS011;59929;43.546;-5.702;2022-08-07T13:29:00;0.03;;;0.00;;
72062;SDS011;59929;43.546;-5.702;2022-08-07T13:31:29;0.00;;;0.00;;
72062;SDS011;59929;43.546;-5.702;2022-08-07T13:34:02;0.10;;;0.00;;
72062;SDS011;59929;43.546;-5.702;2022-08-07T13:36:31;0.00;;;0.00;;
72062;SDS011;59929;43.546;-5.702;2022-08-07T13:39:04;0.20;;;0.00;;
72062;SDS011;59929;43.546;-5.702;2022-08-07T13:41:34;0.10;;;0.00;;
72062;SDS011;59929;43.546;-5.702;2022-08-07T13:44:03;0.15;;;0.10;;
72062;SDS011;59929;43.546;-5.702;2022-08-07T13:46:30;0.03;;;0.00;;
72062;SDS011;59929;43.546;-5.702;2022-08-07T13:48:55;0.10;;;0.00;;
72062;SDS011;59929;43.546;-5.702;2022-08-07T13:51:24;0.10;;;0.00;;
72062;SDS011;59929;43.546;-5.702;2022-08-07T13:53:55;0.10;;;0.00;;
72062;SDS011;59929;43.546;-5.702;2022-08-07T13:56:22;0.20;;;0.03;;
72062;SDS011;59929;43.546;-5.702;2022-08-07T13:58:47;0.10;;;0.00;;
72062;SDS011;59929;43.546;-5.702;2022-08-07T14:01:25;0.10;;;0.10;;
72062;SDS011;59929;43.546;-5.702;2022-08-07T14:03:51;0.38;;;0.20;;
72062;SDS011;59929;43.546;-5.702;2022-08-07T14:06:17;0.70;;;0.50;;
72062;SDS011;59929;43.546;-5.702;2022-08-07T14:08:45;1.15;;;0.90;;
72062;SDS011;59929;43.546;-5.702;2022-08-07T14:11:12;1.30;;;1.20;;
72062;SDS011;59929;43.546;-5.702;2022-08-07T14:13:39;1.52;;;1.40;;
72062;SDS011;59929;43.546;-5.702;2022-08-07T14:16:06;2.10;;;1.90;;
72062;SDS011;59929;43.546;-5.702;2022-08-07T14:18:49;2.42;;;2.22;;
72062;SDS011;59929;43.546;-5.702;2022-08-07T14:21:17;4.25;;;3.95;;
72062;SDS011;59929;43.546;-5.702;2022-08-07T14:23:52;4.37;;;4.07;;
72062;SDS011;59929;43.546;-5.702;2022-08-07T14:26:19;6.63;;;6.22;;
72062;SDS011;59929;43.546;-5.702;2022-08-07T14:28:46;8.20;;;7.70;;
72062;SDS011;59929;43.546;-5.702;2022-08-07T14:31:12;7.75;;;7.25;;
72062;SDS011;59929;43.546;-5.702;2022-08-07T14:33:38;8.50;;;8.00;;
72062;SDS011;59929;43.546;-5.702;2022-08-07T14:36:04;10.00;;;9.40;;
72062;SDS011;59929;43.546;-5.702;2022-08-07T14:38:30;13.73;;;13.02;;
72062;SDS011;59929;43.546;-5.702;2022-08-07T14:40:58;15.48;;;14.68;;
72062;SDS011;59929;43.546;-5.702;2022-08-07T14:43:26;16.30;;;15.50;;
72062;SDS011;59929;43.546;-5.702;2022-08-07T14:45:53;15.95;;;15.15;;
72062;SDS011;59929;43.546;-5.702;2022-08-07T14:48:21;15.60;;;14.80;;
72062;SDS011;59929;43.546;-5.702;2022-08-07T14:50:49;13.70;;;13.00;;
72062;SDS011;59929;43.546;-5.702;2022-08-07T14:53:15;8.60;;;8.10;;
72062;SDS011;59929;43.546;-5.702;2022-08-07T14:55:41;7.87;;;7.37;;
72062;SDS011;59929;43.546;-5.702;2022-08-07T14:58:08;5.60;;;5.20;;
72062;SDS011;59929;43.546;-5.702;2022-08-07T15:00:35;6.32;;;5.93;;
72062;SDS011;59929;43.546;-5.702;2022-08-07T15:03:04;6.40;;;6.00;;
72062;SDS011;59929;43.546;-5.702;2022-08-07T15:05:30;9.25;;;8.75;;
72062;SDS011;59929;43.546;-5.702;2022-08-07T15:07:56;9.90;;;9.30;;
72062;SDS011;59929;43.546;-5.702;2022-08-07T15:10:22;11.20;;;10.60;;
72062;SDS011;59929;43.546;-5.702;2022-08-07T15:12:50;11.45;;;10.85;;
72062;SDS011;59929;43.546;-5.702;2022-08-07T15:15:20;12.23;;;11.53;;
72062;SDS011;59929;43.546;-5.702;2022-08-07T15:17:51;11.32;;;10.73;;
72062;SDS011;59929;43.546;-5.702;2022-08-07T15:20:20;12.82;;;12.13;;
72062;SDS011;59929;43.546;-5.702;2022-08-07T15:22:48;13.30;;;12.60;;
72062;SDS011;59929;43.546;-5.702;2022-08-07T15:25:15;14.23;;;13.52;;
72062;SDS011;59929;43.546;-5.702;2022-08-07T15:27:43;14.17;;;13.47;;
72062;SDS011;59929;43.546;-5.702;2022-08-07T15:30:09;14.52;;;13.75;;
72062;SDS011;59929;43.546;-5.702;2022-08-07T15:35:12;16.80;;;15.90;;
72062;SDS011;59929;43.546;-5.702;2022-08-07T15:37:39;17.52;;;16.63;;
72062;SDS011;59929;43.546;-5.702;2022-08-07T15:40:04;15.37;;;14.57;;
72062;SDS011;59929;43.546;-5.702;2022-08-07T15:42:36;15.35;;;14.55;;
72062;SDS011;59929;43.546;-5.702;2022-08-07T15:45:04;15.63;;;14.82;;
72062;SDS011;59929;43.546;-5.702;2022-08-07T15:47:32;12.67;;;11.97;;
72062;SDS011;59929;43.546;-5.702;2022-08-07T15:49:58;12.48;;;11.77;;
72062;SDS011;59929;43.546;-5.702;2022-08-07T15:52:24;12.00;;;11.37;;
72062;SDS011;59929;43.546;-5.702;2022-08-07T15:54:50;13.67;;;12.97;;
72062;SDS011;59929;43.546;-5.702;2022-08-07T15:57:26;10.00;;;9.40;;
72062;SDS011;59929;43.546;-5.702;2022-08-07T15:59:54;5.80;;;5.40;;
72062;SDS011;59929;43.546;-5.702;2022-08-07T16:02:23;5.00;;;4.70;;
72062;SDS011;59929;43.546;-5.702;2022-08-07T16:04:53;3.28;;;2.97;;